RJNH(METAR)
08/25 22:00
METAR RJNH 251300Z VRB02KT 9999 FEW030 SCT/// 26/18 Q1010 RMK 1CU030
A2984=
戻る
トップページへ戻る
IMOC Co,.Ltd.